Terminal Aerodrome Forecast
Issued by NWS

Home | Current Version | Previous Version | Text Only | Print | Product List | Glossary On
Versions: 1 2 3 4 5 6 7 8 9 10 11 12 13 14 15 16
000
FTUS45 KABQ 071138
TAFSAF
TAF
KSAF 071138Z 0712/0812 17010KT P6SM SCT035 BKN070
      TEMPO 0712/0714 VRB10G20KT 3SM -SHRA BKN030
     FM071900 17010KT P6SM SCT040 SCT110
     FM072200 17011KT P6SM VCTS SCT045CB BKN110
     FM080000 13015KT P6SM VCSH SCT045 BKN110
     FM080400 12008KT P6SM FEW045 BKN110=

USA.gov is the U.S. government's official web portal to all federal, state and local government web resources and services.